Time;durP1;ratioP1;P1;durP2;ratioP2;P2;SDS_P1;SDS_P2;PMS_P1;PMS_P2;Temp;Humidity;BMP_temperature;BMP_pressure;BME280_temperature;BME280_humidity;BME280_pressure;Samples;Min_cycle;Max_cycle;Signal;HPM_P1;HPM_P2
2021/07/22 00:03:49;;;;;;;;;;;25.90;47.10;;;;;;8301150;28;19917;-49
2021/07/22 00:07:50;;;;;;;;;;;25.90;47.20;;;;;;8301158;28;20012;-48
2021/07/22 00:11:50;;;;;;;;;;;25.90;47.20;;;;;;8283785;28;20302;-49
2021/07/22 00:15:51;;;;;;;;;;;25.90;47.20;;;;;;8300545;28;19932;-48
2021/07/22 00:19:51;;;;;;;;;;;25.90;47.20;;;;;;8300100;28;20401;-48
2021/07/22 00:23:52;;;;;;;;;;;25.90;47.20;;;;;;8300722;28;19922;-47
2021/07/22 00:27:52;;;;;;;;;;;25.90;47.20;;;;;;8301165;28;19917;-48
2021/07/22 00:31:53;;;;;;;;;;;25.90;47.20;;;;;;8298844;28;20016;-48
2021/07/22 00:35:53;;;;;;;;;;;25.90;47.20;;;;;;8299909;28;19925;-50
2021/07/22 00:39:53;;;;;;;;;;;25.80;47.20;;;;;;8299932;28;20390;-47
2021/07/22 00:43:54;;;;;;;;;;;25.80;47.20;;;;;;8300106;28;19913;-47
2021/07/22 00:47:55;;;;;;;;;;;25.80;47.20;;;;;;8300016;28;19917;-47
2021/07/22 00:51:56;;;;;;;;;;;25.80;47.20;;;;;;8299670;28;19995;-47
2021/07/22 00:55:56;;;;;;;;;;;25.80;47.20;;;;;;8299148;28;19980;-48
2021/07/22 00:59:57;;;;;;;;;;;25.80;47.20;;;;;;8299491;28;19925;-48
2021/07/22 01:03:57;;;;;;;;;;;25.80;47.20;;;;;;8299848;28;20000;-47
2021/07/22 01:07:58;;;;;;;;;;;25.80;47.20;;;;;;8299307;28;19922;-48
2021/07/22 01:11:58;;;;;;;;;;;25.80;47.20;;;;;;8299270;28;19922;-47
2021/07/22 01:15:59;;;;;;;;;;;25.80;47.20;;;;;;8298943;28;20372;-47
2021/07/22 01:20:01;;;;;;;;;;;25.70;47.20;;;;;;8299031;28;19917;-47
2021/07/22 01:24:02;;;;;;;;;;;25.70;47.10;;;;;;8298963;28;20444;-47
2021/07/22 01:28:02;;;;;;;;;;;25.70;47.20;;;;;;8298489;28;19971;-47
2021/07/22 01:32:04;;;;;;;;;;;25.70;47.20;;;;;;8298055;28;19925;-50
2021/07/22 01:36:04;;;;;;;;;;;25.70;47.20;;;;;;8298941;28;19928;-48
2021/07/22 01:40:05;;;;;;;;;;;25.70;47.20;;;;;;8331477;28;20289;-47
2021/07/22 01:44:05;;;;;;;;;;;25.70;47.30;;;;;;8330047;28;19923;-47
2021/07/22 01:48:06;;;;;;;;;;;25.70;47.20;;;;;;8330826;28;19921;-50
2021/07/22 01:52:06;;;;;;;;;;;25.70;47.10;;;;;;8330593;28;20413;-49
2021/07/22 01:56:08;;;;;;;;;;;25.60;47.10;;;;;;8330648;28;19925;-48
2021/07/22 02:00:09;;;;;;;;;;;25.60;47.10;;;;;;8330466;28;20044;-48
2021/07/22 02:04:10;;;;;;;;;;;25.60;47.10;;;;;;8330615;28;19917;-51
2021/07/22 02:08:10;;;;;;;;;;;25.60;47.10;;;;;;8329830;28;19925;-48
2021/07/22 02:12:10;;;;;;;;;;;25.60;47.10;;;;;;8330953;28;19917;-48
2021/07/22 02:16:11;;;;;;;;;;;25.60;47.10;;;;;;8330360;28;20378;-47
2021/07/22 02:20:11;;;;;;;;;;;25.60;47.20;;;;;;8329648;28;19917;-48
2021/07/22 02:24:12;;;;;;;;;;;25.60;47.20;;;;;;8330004;28;19914;-47
2021/07/22 02:28:13;;;;;;;;;;;25.60;47.20;;;;;;8330318;28;19917;-48
2021/07/22 02:32:13;;;;;;;;;;;25.60;47.20;;;;;;8330297;28;19918;-48
2021/07/22 02:36:14;;;;;;;;;;;25.50;47.10;;;;;;8329871;28;19925;-47
2021/07/22 02:40:14;;;;;;;;;;;25.50;47.20;;;;;;8329765;28;19920;-48
2021/07/22 02:44:14;;;;;;;;;;;25.50;47.10;;;;;;8329399;28;19933;-48
2021/07/22 02:48:15;;;;;;;;;;;25.50;47.20;;;;;;8330658;28;19918;-47
2021/07/22 02:52:15;;;;;;;;;;;25.50;47.20;;;;;;8329618;28;19996;-48
2021/07/22 02:56:16;;;;;;;;;;;25.50;47.20;;;;;;8331325;28;19925;-48
2021/07/22 03:00:16;;;;;;;;;;;25.50;47.20;;;;;;8335981;28;19925;-48
2021/07/22 03:04:17;;;;;;;;;;;25.50;47.20;;;;;;8336320;28;20301;-49
2021/07/22 03:08:17;;;;;;;;;;;25.50;47.20;;;;;;8334970;28;20012;-48
2021/07/22 03:12:18;;;;;;;;;;;25.50;47.20;;;;;;8335799;28;19924;-48
2021/07/22 03:16:18;;;;;;;;;;;25.40;47.10;;;;;;8335122;28;19925;-54
2021/07/22 03:20:19;;;;;;;;;;;25.50;47.20;;;;;;8334799;28;19922;-51
2021/07/22 03:24:19;;;;;;;;;;;25.40;47.10;;;;;;8336267;28;19917;-48
2021/07/22 03:28:20;;;;;;;;;;;25.40;47.20;;;;;;8334981;28;19928;-49
2021/07/22 03:32:20;;;;;;;;;;;25.40;47.20;;;;;;8334329;28;19996;-48
2021/07/22 03:36:20;;;;;;;;;;;25.40;47.20;;;;;;8334845;28;20019;-48
2021/07/22 03:40:21;;;;;;;;;;;25.40;47.20;;;;;;8335247;28;19924;-48
2021/07/22 03:44:21;;;;;;;;;;;25.30;47.10;;;;;;8333906;28;20408;-48
2021/07/22 03:48:22;;;;;;;;;;;25.40;47.20;;;;;;8334239;28;19940;-47
2021/07/22 03:52:22;;;;;;;;;;;25.40;47.20;;;;;;8334108;28;20008;-48
2021/07/22 03:56:23;;;;;;;;;;;25.30;47.20;;;;;;8334248;28;19921;-49
2021/07/22 04:00:23;;;;;;;;;;;25.30;47.20;;;;;;8334136;28;19948;-48
2021/07/22 04:04:24;;;;;;;;;;;25.30;47.20;;;;;;8333624;28;19917;-49
2021/07/22 04:08:24;;;;;;;;;;;25.30;47.20;;;;;;8333799;28;19933;-48
2021/07/22 04:12:26;;;;;;;;;;;25.30;47.20;;;;;;8333601;28;20401;-48
2021/07/22 04:16:26;;;;;;;;;;;25.30;47.20;;;;;;8334026;28;19925;-49
2021/07/22 04:20:28;;;;;;;;;;;25.30;47.20;;;;;;8332576;28;19923;-48
2021/07/22 04:24:28;;;;;;;;;;;25.20;47.10;;;;;;8333079;28;19923;-49
2021/07/22 04:28:29;;;;;;;;;;;25.20;47.10;;;;;;8332866;28;19913;-48
2021/07/22 04:32:30;;;;;;;;;;;25.20;47.10;;;;;;8333312;28;19944;-48
2021/07/22 04:36:31;;;;;;;;;;;25.20;47.10;;;;;;8332611;28;20404;-48
2021/07/22 04:40:31;;;;;;;;;;;25.20;47.10;;;;;;8332692;28;19913;-48
2021/07/22 04:44:31;;;;;;;;;;;25.20;47.10;;;;;;8331974;28;20000;-49
2021/07/22 04:48:32;;;;;;;;;;;25.20;47.10;;;;;;8332524;28;19913;-48
2021/07/22 04:52:33;;;;;;;;;;;25.20;47.10;;;;;;8332724;28;20309;-50
2021/07/22 04:56:33;;;;;;;;;;;25.20;47.10;;;;;;8331499;28;19925;-48
2021/07/22 05:00:34;;;;;;;;;;;25.20;47.10;;;;;;8332189;28;19913;-48
2021/07/22 05:04:34;;;;;;;;;;;25.20;47.10;;;;;;8331951;28;20003;-49
2021/07/22 05:08:35;;;;;;;;;;;25.20;47.10;;;;;;8332700;28;19928;-48
2021/07/22 05:12:35;;;;;;;;;;;25.20;47.10;;;;;;8331721;28;19917;-48
2021/07/22 05:16:36;;;;;;;;;;;25.20;47.10;;;;;;8331632;28;19921;-49
2021/07/22 05:20:36;;;;;;;;;;;25.10;47.00;;;;;;8330478;28;19953;-49
2021/07/22 05:24:36;;;;;;;;;;;25.20;47.10;;;;;;8332058;28;19995;-49
2021/07/22 05:28:37;;;;;;;;;;;25.20;47.10;;;;;;8331216;28;20298;-48
2021/07/22 05:32:38;;;;;;;;;;;25.20;47.10;;;;;;8331033;28;19963;-49
2021/07/22 05:36:39;;;;;;;;;;;25.20;47.10;;;;;;8331310;28;19943;-48
2021/07/22 05:40:40;;;;;;;;;;;25.20;47.00;;;;;;8330899;28;19921;-49
2021/07/22 05:44:40;;;;;;;;;;;25.20;46.90;;;;;;8331035;28;20461;-48
2021/07/22 05:48:41;;;;;;;;;;;25.20;46.80;;;;;;8330716;28;19917;-48
2021/07/22 05:52:41;;;;;;;;;;;25.30;46.80;;;;;;8330089;28;19917;-48
2021/07/22 05:56:41;;;;;;;;;;;25.20;46.70;;;;;;8330402;28;20314;-48
2021/07/22 06:00:42;;;;;;;;;;;25.30;46.80;;;;;;8331137;28;19952;-48
2021/07/22 06:04:42;;;;;;;;;;;25.20;46.70;;;;;;8329821;28;19917;-49
2021/07/22 06:08:43;;;;;;;;;;;25.20;46.70;;;;;;8330904;28;20005;-48
2021/07/22 06:12:43;;;;;;;;;;;25.20;46.80;;;;;;8330589;28;20397;-48
2021/07/22 06:16:44;;;;;;;;;;;25.20;46.80;;;;;;8330481;28;20431;-48
2021/07/22 06:20:44;;;;;;;;;;;25.20;46.80;;;;;;8330232;28;20043;-48
2021/07/22 06:24:45;;;;;;;;;;;25.20;46.80;;;;;;8330167;28;19979;-49
2021/07/22 06:28:45;;;;;;;;;;;25.10;46.80;;;;;;8329430;28;19952;-49
2021/07/22 06:32:45;;;;;;;;;;;25.20;46.80;;;;;;8334823;28;20310;-49
2021/07/22 06:36:46;;;;;;;;;;;25.20;46.80;;;;;;8337146;28;19925;-52
2021/07/22 06:40:46;;;;;;;;;;;25.20;46.90;;;;;;8335939;28;19944;-47
2021/07/22 06:44:47;;;;;;;;;;;25.10;46.80;;;;;;8336544;28;19917;-47
2021/07/22 06:48:49;;;;;;;;;;;25.10;46.80;;;;;;8336183;28;19913;-48
2021/07/22 06:52:49;;;;;;;;;;;25.20;46.80;;;;;;8336396;28;20365;-48
2021/07/22 06:56:50;;;;;;;;;;;25.20;46.80;;;;;;8335679;28;19975;-48
2021/07/22 07:00:51;;;;;;;;;;;25.20;46.70;;;;;;8335789;28;20000;-48
2021/07/22 07:04:51;;;;;;;;;;;25.20;47.30;;;;;;8335100;28;19913;-49
2021/07/22 07:08:52;;;;;;;;;;;25.20;46.70;;;;;;8336801;28;19951;-48
2021/07/22 07:12:52;;;;;;;;;;;25.20;46.70;;;;;;8335717;28;19917;-49
2021/07/22 07:16:53;;;;;;;;;;;25.20;46.70;;;;;;8334676;28;19929;-50
2021/07/22 07:20:53;;;;;;;;;;;25.20;46.70;;;;;;8335276;28;19921;-47
2021/07/22 07:24:53;;;;;;;;;;;25.20;46.70;;;;;;8334847;28;20267;-48
2021/07/22 07:28:54;;;;;;;;;;;25.20;46.70;;;;;;8335395;28;19940;-48
2021/07/22 07:32:54;;;;;;;;;;;25.20;46.70;;;;;;8334725;28;19917;-48
2021/07/22 07:36:56;;;;;;;;;;;25.20;46.70;;;;;;8334571;28;20011;-49
2021/07/22 07:40:56;;;;;;;;;;;25.20;46.70;;;;;;8333536;28;19917;-48
2021/07/22 07:44:58;;;;;;;;;;;25.20;46.80;;;;;;8335741;28;19917;-48
2021/07/22 07:48:58;;;;;;;;;;;25.10;46.70;;;;;;8334409;28;19925;-49
2021/07/22 07:52:59;;;;;;;;;;;25.20;46.80;;;;;;8333960;28;19913;-50
2021/07/22 07:56:59;;;;;;;;;;;25.20;46.80;;;;;;8333875;28;19929;-50
2021/07/22 08:00:59;;;;;;;;;;;25.20;46.80;;;;;;8334234;28;20285;-48
2021/07/22 08:05:00;;;;;;;;;;;25.20;46.80;;;;;;8333704;28;19928;-50
2021/07/22 08:09:01;;;;;;;;;;;25.20;46.80;;;;;;8333504;28;19932;-50
2021/07/22 08:13:05;;;;;;;;;;;25.20;46.80;;;;;;8333705;28;19921;-49
2021/07/22 08:17:06;;;;;;;;;;;25.20;46.80;;;;;;8332938;28;20003;-53
2021/07/22 08:21:06;;;;;;;;;;;25.20;46.80;;;;;;8333316;28;19925;-49
2021/07/22 08:25:09;;;;;;;;;;;25.20;46.90;;;;;;8305116;28;19925;-49
2021/07/22 08:29:10;;;;;;;;;;;25.20;46.80;;;;;;8299868;28;19918;-50
2021/07/22 08:33:10;;;;;;;;;;;25.20;46.90;;;;;;8300207;28;19924;-49
2021/07/22 08:37:11;;;;;;;;;;;25.20;46.90;;;;;;8300832;28;19936;-49
2021/07/22 08:41:12;;;;;;;;;;;25.20;46.80;;;;;;8299449;28;19918;-50
2021/07/22 08:45:14;;;;;;;;;;;25.20;46.90;;;;;;8299703;28;19918;-49
2021/07/22 08:49:14;;;;;;;;;;;25.20;46.90;;;;;;8299487;28;20325;-51
2021/07/22 08:53:15;;;;;;;;;;;25.20;46.90;;;;;;8298316;28;19929;-49
2021/07/22 08:57:17;;;;;;;;;;;25.30;46.90;;;;;;8300035;28;19929;-51
2021/07/22 09:01:18;;;;;;;;;;;25.30;46.90;;;;;;8299145;28;19917;-49
2021/07/22 09:05:19;;;;;;;;;;;25.30;46.90;;;;;;8298473;28;20005;-51
2021/07/22 09:09:19;;;;;;;;;;;25.30;46.90;;;;;;8299578;28;20329;-48
2021/07/22 09:13:23;;;;;;;;;;;25.30;46.90;;;;;;8299724;28;19918;-52
2021/07/22 09:17:25;;;;;;;;;;;25.40;47.00;;;;;;8298249;28;19926;-49
2021/07/22 09:21:26;;;;;;;;;;;25.40;47.00;;;;;;8298784;28;20366;-50
2021/07/22 09:25:43;;;;;;;;;;;25.40;47.00;;;;;;8298512;28;19925;-53
2021/07/22 09:29:56;;;;;;;;;;;25.40;47.00;;;;;;8298546;28;19961;-50
2021/07/22 09:33:57;;;;;;;;;;;25.40;47.00;;;;;;8298936;28;20309;-51
2021/07/22 09:37:58;;;;;;;;;;;25.40;47.00;;;;;;8297872;28;19933;-52
2021/07/22 09:42:00;;;;;;;;;;;25.40;47.00;;;;;;8298437;28;19979;-51
2021/07/22 09:46:00;;;;;;;;;;;25.40;47.00;;;;;;8297873;28;19925;-50
2021/07/22 09:50:07;;;;;;;;;;;25.50;47.00;;;;;;8298337;28;20323;-49
2021/07/22 09:54:08;;;;;;;;;;;25.50;47.00;;;;;;8297797;28;19925;-50
2021/07/22 09:58:09;;;;;;;;;;;25.50;47.00;;;;;;8297560;28;20367;-48
2021/07/22 10:02:14;;;;;;;;;;;25.50;46.90;;;;;;8297204;28;19917;-49
2021/07/22 10:06:18;;;;;;;;;;;25.50;47.00;;;;;;8297777;28;19926;-52
2021/07/22 10:10:19;;;;;;;;;;;25.60;47.00;;;;;;8298401;28;19978;-50
2021/07/22 10:14:20;;;;;;;;;;;25.60;47.00;;;;;;8297218;28;19921;-50
2021/07/22 10:18:21;;;;;;;;;;;25.60;47.00;;;;;;8297528;28;19956;-50
2021/07/22 10:22:22;;;;;;;;;;;25.60;47.00;;;;;;8297677;28;20393;-48
2021/07/22 10:26:23;;;;;;;;;;;25.60;47.00;;;;;;8297692;28;19913;-49
2021/07/22 10:30:24;;;;;;;;;;;25.60;47.00;;;;;;8297625;28;20333;-49
2021/07/22 10:34:25;;;;;;;;;;;25.60;47.00;;;;;;8297266;28;19983;-49
2021/07/22 10:38:40;;;;;;;;;;;25.70;47.00;;;;;;8296718;28;20600;-50
2021/07/22 10:42:48;;;;;;;;;;;25.70;47.00;;;;;;8297618;28;20404;-50
2021/07/22 10:46:50;;;;;;;;;;;25.70;47.00;;;;;;8297542;28;20005;-50
2021/07/22 10:50:54;;;;;;;;;;;25.70;47.00;;;;;;8297035;28;20282;-50
2021/07/22 10:54:55;;;;;;;;;;;25.80;47.10;;;;;;8297008;28;20404;-49
2021/07/22 10:58:56;;;;;;;;;;;25.80;47.00;;;;;;8296425;28;19927;-49
2021/07/22 11:02:56;;;;;;;;;;;25.80;47.00;;;;;;8297366;28;20008;-49
2021/07/22 11:07:00;;;;;;;;;;;25.80;47.00;;;;;;8297467;28;19929;-49
2021/07/22 11:11:06;;;;;;;;;;;25.80;47.10;;;;;;8296458;28;19922;-49
2021/07/22 11:15:08;;;;;;;;;;;25.90;47.00;;;;;;8296690;28;20008;-50
2021/07/22 11:19:12;;;;;;;;;;;25.90;47.00;;;;;;8301157;28;19925;-51
2021/07/22 11:23:13;;;;;;;;;;;25.90;47.00;;;;;;8302926;28;19918;-52
2021/07/22 11:27:14;;;;;;;;;;;25.90;47.00;;;;;;8302100;28;19918;-50
2021/07/22 11:31:14;;;;;;;;;;;25.90;46.90;;;;;;8302115;28;20008;-52
2021/07/22 11:35:17;;;;;;;;;;;25.90;47.00;;;;;;8301406;28;19925;-52
2021/07/22 11:39:29;;;;;;;;;;;26.00;46.90;;;;;;8302559;28;19976;-49
2021/07/22 11:43:32;;;;;;;;;;;26.00;46.90;;;;;;8302566;28;19923;-51
2021/07/22 11:47:33;;;;;;;;;;;26.00;46.90;;;;;;8301186;28;19918;-49
2021/07/22 11:51:34;;;;;;;;;;;26.00;46.90;;;;;;8301837;28;20339;-51
2021/07/22 11:55:34;;;;;;;;;;;26.10;46.90;;;;;;8301094;28;19925;-50
2021/07/22 11:59:34;;;;;;;;;;;26.10;46.80;;;;;;8301529;28;19960;-49
2021/07/22 12:03:35;;;;;;;;;;;26.10;46.80;;;;;;8301164;28;19918;-51
2021/07/22 12:07:35;;;;;;;;;;;26.10;46.80;;;;;;8301588;28;19925;-51
2021/07/22 12:11:41;;;;;;;;;;;26.20;46.90;;;;;;8299953;28;21302;-50
2021/07/22 12:15:42;;;;;;;;;;;26.20;46.80;;;;;;8301603;28;19914;-49
2021/07/22 12:19:46;;;;;;;;;;;26.20;46.80;;;;;;8300002;28;20020;-50
2021/07/22 12:23:47;;;;;;;;;;;26.20;46.70;;;;;;8300843;28;20008;-49
2021/07/22 12:27:53;;;;;;;;;;;26.20;46.70;;;;;;8300429;28;19964;-48
2021/07/22 12:31:54;;;;;;;;;;;26.30;46.70;;;;;;8299871;28;19922;-51
2021/07/22 12:35:54;;;;;;;;;;;26.30;46.70;;;;;;8300684;28;20309;-50
2021/07/22 12:40:06;;;;;;;;;;;26.30;46.70;;;;;;8300104;28;20382;-50
2021/07/22 12:44:07;;;;;;;;;;;26.30;46.70;;;;;;8299320;28;19961;-51
2021/07/22 12:48:08;;;;;;;;;;;26.30;46.70;;;;;;8299930;28;19918;-50
2021/07/22 12:52:09;;;;;;;;;;;26.30;46.70;;;;;;8300481;28;19921;-50
2021/07/22 12:56:10;;;;;;;;;;;26.40;46.80;;;;;;8331686;28;19992;-52
2021/07/22 13:00:13;;;;;;;;;;;26.40;46.70;;;;;;8332097;28;19917;-50
2021/07/22 13:04:14;;;;;;;;;;;26.40;46.70;;;;;;8332005;28;19963;-53
2021/07/22 13:08:14;;;;;;;;;;;26.40;47.20;;;;;;8331586;28;19964;-51
2021/07/22 13:12:15;;;;;;;;;;;26.40;46.60;;;;;;8332272;28;19917;-52
2021/07/22 13:16:16;;;;;;;;;;;26.50;46.60;;;;;;8331404;28;19932;-50
2021/07/22 13:20:20;;;;;;;;;;;26.50;46.60;;;;;;8330992;28;19956;-49
2021/07/22 13:24:20;;;;;;;;;;;26.50;46.60;;;;;;8318217;28;19965;-52
2021/07/22 13:28:21;;;;;;;;;;;26.50;46.60;;;;;;8329880;28;19938;-51
2021/07/22 13:32:21;;;;;;;;;;;26.50;46.60;;;;;;8299662;28;19921;-50
2021/07/22 13:36:22;;;;;;;;;;;26.50;46.50;;;;;;8299987;28;19985;-46
2021/07/22 13:40:22;;;;;;;;;;;26.60;46.60;;;;;;8318616;28;19924;-49
2021/07/22 13:44:23;;;;;;;;;;;26.50;46.50;;;;;;8324980;28;19913;-51
2021/07/22 13:48:23;;;;;;;;;;;26.60;46.50;;;;;;8298395;28;19921;-49
2021/07/22 13:52:24;;;;;;;;;;;26.50;46.40;;;;;;8303302;28;19917;-51
2021/07/22 13:56:24;;;;;;;;;;;26.60;46.40;;;;;;8319096;28;19971;-49
2021/07/22 14:00:25;;;;;;;;;;;26.60;46.40;;;;;;8312153;28;19926;-52
2021/07/22 14:04:25;;;;;;;;;;;26.60;46.40;;;;;;8319670;28;19920;-49
2021/07/22 14:08:26;;;;;;;;;;;26.60;46.40;;;;;;8321797;28;20055;-51
2021/07/22 14:12:26;;;;;;;;;;;26.60;46.40;;;;;;8311508;28;19995;-51
2021/07/22 14:16:27;;;;;;;;;;;26.70;46.40;;;;;;8297128;28;20319;-52
2021/07/22 14:20:27;;;;;;;;;;;26.60;46.30;;;;;;8314077;28;19932;-51
2021/07/22 14:24:28;;;;;;;;;;;26.70;46.40;;;;;;8310928;28;20289;-52
2021/07/22 14:28:28;;;;;;;;;;;26.60;46.20;;;;;;8307561;28;20021;-52
2021/07/22 14:32:29;;;;;;;;;;;26.70;46.20;;;;;;8296692;28;19925;-53
2021/07/22 14:36:30;;;;;;;;;;;26.70;46.20;;;;;;8310943;28;19933;-52
2021/07/22 14:40:30;;;;;;;;;;;26.70;46.20;;;;;;8298180;28;19945;-50
2021/07/22 14:44:31;;;;;;;;;;;26.70;46.30;;;;;;8319000;28;20004;-52
2021/07/22 14:48:31;;;;;;;;;;;26.70;46.20;;;;;;8309076;28;19980;-49
2021/07/22 14:52:32;;;;;;;;;;;26.70;46.20;;;;;;8317729;28;20385;-49
2021/07/22 14:56:32;;;;;;;;;;;26.70;46.20;;;;;;8313945;28;20370;-51
2021/07/22 15:00:33;;;;;;;;;;;26.80;46.10;;;;;;8318025;28;20409;-51
2021/07/22 15:04:33;;;;;;;;;;;26.80;46.10;;;;;;8306366;28;19936;-49
2021/07/22 15:08:34;;;;;;;;;;;26.80;46.00;;;;;;8307845;28;19927;-52
2021/07/22 15:12:34;;;;;;;;;;;26.80;45.90;;;;;;8307004;28;19913;-50
2021/07/22 15:16:35;;;;;;;;;;;26.80;46.00;;;;;;8304722;28;19933;-51
2021/07/22 15:20:35;;;;;;;;;;;26.80;46.00;;;;;;8313139;28;19963;-52
2021/07/22 15:24:36;;;;;;;;;;;26.80;46.00;;;;;;8326225;28;19924;-52
2021/07/22 15:28:37;;;;;;;;;;;26.80;45.90;;;;;;8322405;28;19924;-49
2021/07/22 15:32:37;;;;;;;;;;;26.80;44.60;;;;;;8316666;28;19917;-53
2021/07/22 15:36:38;;;;;;;;;;;26.80;45.20;;;;;;8300127;28;20365;-48
2021/07/22 15:40:38;;;;;;;;;;;26.80;46.00;;;;;;8314546;28;20409;-52
2021/07/22 15:44:45;;;;;;;;;;;26.90;45.70;;;;;;8309760;28;19917;-52
2021/07/22 15:48:45;;;;;;;;;;;26.90;42.80;;;;;;8321762;28;20350;-52
2021/07/22 15:52:46;;;;;;;;;;;27.00;41.80;;;;;;8307931;28;19968;-51
2021/07/22 15:56:46;;;;;;;;;;;27.10;39.20;;;;;;8308760;28;19951;-51
2021/07/22 16:00:46;;;;;;;;;;;27.20;38.70;;;;;;8313084;28;20370;-49
2021/07/22 16:04:47;;;;;;;;;;;27.30;37.00;;;;;;8311720;28;19929;-48
2021/07/22 16:08:47;;;;;;;;;;;27.30;36.10;;;;;;8284523;28;19932;-49
2021/07/22 16:12:48;;;;;;;;;;;27.40;36.60;;;;;;8299716;28;20287;-48
2021/07/22 16:16:48;;;;;;;;;;;27.40;36.20;;;;;;8314756;28;20028;-50
2021/07/22 16:20:49;;;;;;;;;;;27.40;37.20;;;;;;8318847;28;19917;-49
2021/07/22 16:24:49;;;;;;;;;;;27.40;36.90;;;;;;8324544;28;19925;-46
2021/07/22 16:28:50;;;;;;;;;;;27.40;37.20;;;;;;8298271;28;19921;-51
2021/07/22 16:32:50;;;;;;;;;;;27.50;37.30;;;;;;8294048;28;19922;-50
2021/07/22 16:36:50;;;;;;;;;;;27.50;37.30;;;;;;8298491;28;19999;-50
2021/07/22 16:40:51;;;;;;;;;;;27.50;37.00;;;;;;8326653;28;19979;-51
2021/07/22 16:44:53;;;;;;;;;;;27.50;37.30;;;;;;8326241;28;19925;-49
2021/07/22 16:48:53;;;;;;;;;;;27.50;37.20;;;;;;8326177;28;19921;-51
2021/07/22 16:52:55;;;;;;;;;;;27.50;37.30;;;;;;8308096;28;19918;-49
2021/07/22 16:56:55;;;;;;;;;;;27.50;36.70;;;;;;8293110;28;20336;-50
2021/07/22 17:00:56;;;;;;;;;;;27.50;36.80;;;;;;8293871;28;20334;-52
2021/07/22 17:04:57;;;;;;;;;;;27.50;35.50;;;;;;8292280;28;19924;-49
2021/07/22 17:09:01;;;;;;;;;;;27.50;35.60;;;;;;8293355;28;19932;-51
2021/07/22 17:13:03;;;;;;;;;;;27.50;36.10;;;;;;8293309;28;19917;-48
2021/07/22 17:17:03;;;;;;;;;;;27.50;36.50;;;;;;8292401;28;20400;-48
2021/07/22 17:21:07;;;;;;;;;;;27.50;37.70;;;;;;8301852;28;19925;-49
2021/07/22 17:25:08;;;;;;;;;;;27.40;37.60;;;;;;8291309;28;19922;-51
2021/07/22 17:29:08;;;;;;;;;;;27.40;38.00;;;;;;8290219;28;19952;-49
2021/07/22 17:33:09;;;;;;;;;;;27.40;37.00;;;;;;8291088;28;19917;-50
2021/07/22 17:37:09;;;;;;;;;;;27.40;37.30;;;;;;8292271;28;19964;-52
2021/07/22 17:41:13;;;;;;;;;;;27.40;37.80;;;;;;8291277;28;19922;-53
2021/07/22 17:45:13;;;;;;;;;;;27.40;39.00;;;;;;8311261;28;20004;-48
2021/07/22 17:49:14;;;;;;;;;;;27.40;38.80;;;;;;8324044;28;19917;-50
2021/07/22 17:53:14;;;;;;;;;;;27.40;39.10;;;;;;8323906;28;19921;-50
2021/07/22 17:57:15;;;;;;;;;;;27.40;39.50;;;;;;8324025;28;19929;-53
2021/07/22 18:01:15;;;;;;;;;;;27.40;39.80;;;;;;8324161;28;19925;-49
2021/07/22 18:05:16;;;;;;;;;;;27.40;40.30;;;;;;8313884;28;20016;-48
2021/07/22 18:09:16;;;;;;;;;;;27.40;40.50;;;;;;8292074;28;19921;-50
2021/07/22 18:13:16;;;;;;;;;;;27.40;40.80;;;;;;8295085;28;20305;-50
2021/07/22 18:17:17;;;;;;;;;;;27.40;41.10;;;;;;8301030;28;19929;-48
2021/07/22 18:21:17;;;;;;;;;;;27.30;41.30;;;;;;8291173;28;19921;-47
2021/07/22 18:25:18;;;;;;;;;;;27.30;41.50;;;;;;8293824;28;19921;-48
2021/07/22 18:29:18;;;;;;;;;;;27.30;41.60;;;;;;8330650;28;19917;-51
2021/07/22 18:33:22;;;;;;;;;;;27.30;41.80;;;;;;8330171;28;19928;-51
2021/07/22 18:37:27;;;;;;;;;;;27.30;42.20;;;;;;8330233;28;19933;-48
2021/07/22 18:41:28;;;;;;;;;;;27.30;42.50;;;;;;8329488;28;19927;-51
2021/07/22 18:45:28;;;;;;;;;;;27.30;42.60;;;;;;8330935;28;19921;-52
2021/07/22 18:49:29;;;;;;;;;;;27.30;42.80;;;;;;8329567;28;19975;-50
2021/07/22 18:53:29;;;;;;;;;;;27.20;42.90;;;;;;8329050;28;20382;-52
2021/07/22 18:57:30;;;;;;;;;;;27.10;43.00;;;;;;8318718;28;19929;-48
2021/07/22 19:01:31;;;;;;;;;;;27.00;43.00;;;;;;8296672;28;19924;-48
2021/07/22 19:05:31;;;;;;;;;;;27.00;42.80;;;;;;8296309;28;19925;-48
2021/07/22 19:09:32;;;;;;;;;;;27.00;42.60;;;;;;8296961;28;20410;-48
2021/07/22 19:13:33;;;;;;;;;;;26.90;42.20;;;;;;8303462;28;20355;-48
2021/07/22 19:17:33;;;;;;;;;;;26.80;42.10;;;;;;8324741;28;20021;-50
2021/07/22 19:21:35;;;;;;;;;;;26.80;42.30;;;;;;8297472;28;20362;-49
2021/07/22 19:25:35;;;;;;;;;;;26.80;42.30;;;;;;8296571;28;19922;-48
2021/07/22 19:29:38;;;;;;;;;;;26.70;42.30;;;;;;8296165;28;20442;-47
2021/07/22 19:33:38;;;;;;;;;;;26.70;42.30;;;;;;8296094;28;19979;-49
2021/07/22 19:37:39;;;;;;;;;;;26.60;42.30;;;;;;8309399;28;19956;-51
2021/07/22 19:41:39;;;;;;;;;;;26.60;42.00;;;;;;8306389;28;20009;-53
2021/07/22 19:45:40;;;;;;;;;;;26.60;42.50;;;;;;8311229;28;19917;-52
2021/07/22 19:49:40;;;;;;;;;;;26.60;42.70;;;;;;8301670;28;20374;-51
2021/07/22 19:53:41;;;;;;;;;;;26.60;43.30;;;;;;8300821;28;19914;-50
2021/07/22 19:57:41;;;;;;;;;;;26.70;43.60;;;;;;8302334;28;20400;-51
2021/07/22 20:01:42;;;;;;;;;;;26.70;43.40;;;;;;8301172;28;19979;-51
2021/07/22 20:05:42;;;;;;;;;;;26.80;43.60;;;;;;8301100;28;19955;-51
2021/07/22 20:09:42;;;;;;;;;;;26.80;43.70;;;;;;8301147;28;19924;-52
2021/07/22 20:13:43;;;;;;;;;;;26.80;43.60;;;;;;8301212;28;19949;-50
2021/07/22 20:17:43;;;;;;;;;;;26.80;43.60;;;;;;8300749;28;19926;-52
2021/07/22 20:21:47;;;;;;;;;;;26.80;43.80;;;;;;8300802;28;19917;-49
2021/07/22 20:25:47;;;;;;;;;;;26.80;43.80;;;;;;8300017;28;20264;-52
2021/07/22 20:29:48;;;;;;;;;;;26.80;43.90;;;;;;8301179;28;19914;-52
2021/07/22 20:33:48;;;;;;;;;;;26.80;43.80;;;;;;8300203;28;19924;-52
2021/07/22 20:37:49;;;;;;;;;;;26.80;44.00;;;;;;8299640;28;20385;-51
2021/07/22 20:41:49;;;;;;;;;;;26.80;43.90;;;;;;8299935;28;19917;-53
2021/07/22 20:45:50;;;;;;;;;;;26.80;44.00;;;;;;8299944;28;19925;-53
2021/07/22 20:49:50;;;;;;;;;;;26.80;44.00;;;;;;8298896;28;19918;-53
2021/07/22 20:53:50;;;;;;;;;;;26.80;44.00;;;;;;8299463;28;19928;-53
2021/07/22 20:57:51;;;;;;;;;;;26.80;44.10;;;;;;8299451;28;20021;-52
2021/07/22 21:01:53;;;;;;;;;;;26.80;44.10;;;;;;8298823;28;20294;-52
2021/07/22 21:05:54;;;;;;;;;;;26.80;44.10;;;;;;8300208;28;19984;-51
2021/07/22 21:09:54;;;;;;;;;;;26.80;44.10;;;;;;8299035;28;19925;-51
2021/07/22 21:13:54;;;;;;;;;;;26.80;44.20;;;;;;8298717;28;19925;-52
2021/07/22 21:17:55;;;;;;;;;;;26.80;44.10;;;;;;8298519;28;19980;-51
2021/07/22 21:21:55;;;;;;;;;;;26.80;44.20;;;;;;8299095;28;19983;-49
2021/07/22 21:25:56;;;;;;;;;;;26.80;44.20;;;;;;8298458;28;19960;-50
2021/07/22 21:29:56;;;;;;;;;;;26.70;44.20;;;;;;8298409;28;19917;-50
2021/07/22 21:33:57;;;;;;;;;;;26.70;44.20;;;;;;8298287;28;19988;-51
2021/07/22 21:37:57;;;;;;;;;;;26.70;44.20;;;;;;8297539;28;20342;-49
2021/07/22 21:41:59;;;;;;;;;;;26.70;44.20;;;;;;8299206;28;19913;-52
2021/07/22 21:46:00;;;;;;;;;;;26.70;44.30;;;;;;8298134;28;20377;-51
2021/07/22 21:50:00;;;;;;;;;;;26.70;44.30;;;;;;8297504;28;19924;-47
2021/07/22 21:54:00;;;;;;;;;;;26.70;44.30;;;;;;8298203;28;19924;-50
2021/07/22 21:58:01;;;;;;;;;;;26.70;44.90;;;;;;8298700;28;19968;-49
2021/07/22 22:02:03;;;;;;;;;;;26.70;44.30;;;;;;8303054;28;19930;-51
2021/07/22 22:06:03;;;;;;;;;;;26.70;44.40;;;;;;8309426;28;19921;-52
2021/07/22 22:10:04;;;;;;;;;;;26.60;44.30;;;;;;8297722;28;19924;-49
2021/07/22 22:14:04;;;;;;;;;;;26.60;44.30;;;;;;8297008;28;20303;-51
2021/07/22 22:18:05;;;;;;;;;;;26.60;44.30;;;;;;8297937;28;19921;-50
2021/07/22 22:22:05;;;;;;;;;;;26.60;44.30;;;;;;8297451;28;19924;-49
2021/07/22 22:26:06;;;;;;;;;;;26.60;44.30;;;;;;8296706;28;19918;-48
2021/07/22 22:30:06;;;;;;;;;;;26.60;44.30;;;;;;8297300;28;19951;-50
2021/07/22 22:34:07;;;;;;;;;;;26.60;44.30;;;;;;8298110;28;19914;-49
2021/07/22 22:38:09;;;;;;;;;;;26.60;44.30;;;;;;8296330;28;19925;-52
2021/07/22 22:42:10;;;;;;;;;;;26.60;44.20;;;;;;8297431;28;19987;-50
2021/07/22 22:46:10;;;;;;;;;;;26.50;44.10;;;;;;8297157;28;19917;-50
2021/07/22 22:50:11;;;;;;;;;;;26.50;44.10;;;;;;8297278;28;19914;-47
2021/07/22 22:54:11;;;;;;;;;;;26.50;44.10;;;;;;8297389;28;19918;-48
2021/07/22 22:58:12;;;;;;;;;;;26.50;44.10;;;;;;8296908;28;19929;-49
2021/07/22 23:02:13;;;;;;;;;;;26.50;44.20;;;;;;8296507;28;19948;-52
2021/07/22 23:06:14;;;;;;;;;;;26.50;44.10;;;;;;8297174;28;19948;-52
2021/07/22 23:10:15;;;;;;;;;;;26.50;44.20;;;;;;8297667;28;19920;-49
2021/07/22 23:14:15;;;;;;;;;;;26.50;44.20;;;;;;8299737;28;19925;-49
2021/07/22 23:18:16;;;;;;;;;;;26.40;44.10;;;;;;8302630;28;19929;-49
2021/07/22 23:22:16;;;;;;;;;;;26.40;44.10;;;;;;8302920;28;19921;-50